Time;durP1;ratioP1;P1;durP2;ratioP2;P2;SDS_P1;SDS_P2;PMS_P1;PMS_P2;Temp;Humidity;BMP_temperature;BMP_pressure;BME280_temperature;BME280_humidity;BME280_pressure;Samples;Min_cycle;Max_cycle;Signal;HPM_P1;HPM_P2
2022/09/06 00:00:39;;;;;;;3.00;2.53;;;19.20;1.00;;;;;;5052703;28;20447;-63
2022/09/06 00:03:06;;;;;;;3.65;2.22;;;19.20;1.00;;;;;;5052256;28;20048;-64
2022/09/06 00:05:34;;;;;;;2.97;2.25;;;19.10;1.00;;;;;;5052526;28;20427;-63
2022/09/06 00:08:00;;;;;;;2.88;2.17;;;19.10;1.00;;;;;;5052296;28;20119;-63
2022/09/06 00:10:28;;;;;;;6.57;2.88;;;19.10;1.00;;;;;;5052694;28;20061;-64
2022/09/06 00:12:54;;;;;;;3.75;2.78;;;19.10;1.00;;;;;;5052248;28;20040;-63
2022/09/06 00:15:21;;;;;;;2.78;2.30;;;19.00;1.00;;;;;;5052542;28;20037;-63
2022/09/06 00:17:47;;;;;;;5.70;2.70;;;19.10;1.00;;;;;;5052488;28;20120;-63
2022/09/06 00:20:14;;;;;;;3.33;2.47;;;19.00;1.00;;;;;;5052544;28;20041;-63
2022/09/06 00:22:40;;;;;;;4.72;2.72;;;19.00;1.00;;;;;;5052572;28;20110;-63
2022/09/06 00:25:06;;;;;;;3.72;2.40;;;19.00;1.00;;;;;;5052418;28;20136;-63
2022/09/06 00:27:33;;;;;;;3.70;2.78;;;19.00;1.00;;;;;;5052491;28;20044;-63
2022/09/06 00:29:58;;;;;;;3.45;2.75;;;19.00;1.00;;;;;;5052166;28;20029;-63
2022/09/06 00:32:24;;;;;;;4.00;2.70;;;19.00;1.00;;;;;;5055388;28;20044;-64
2022/09/06 00:34:50;;;;;;;4.57;2.92;;;19.00;1.00;;;;;;5053997;28;20056;-64
2022/09/06 00:37:16;;;;;;;4.28;2.80;;;18.90;1.00;;;;;;5055766;28;20044;-63
2022/09/06 00:39:41;;;;;;;4.30;2.72;;;18.90;1.00;;;;;;5056195;28;20052;-63
2022/09/06 00:42:09;;;;;;;3.45;2.63;;;18.90;1.00;;;;;;5037805;28;20128;-63
2022/09/06 00:44:35;;;;;;;3.35;2.60;;;18.80;1.00;;;;;;5054249;28;20060;-64
2022/09/06 00:47:01;;;;;;;4.57;2.65;;;18.80;1.00;;;;;;5055842;28;20037;-63
2022/09/06 00:49:36;;;;;;;4.53;2.88;;;18.70;1.00;;;;;;5055896;28;20041;-63
2022/09/06 00:52:08;;;;;;;2.72;2.42;;;18.70;1.00;;;;;;5055788;28;20544;-63
2022/09/06 00:54:34;;;;;;;4.75;2.80;;;18.70;1.00;;;;;;5055403;28;20048;-63
2022/09/06 00:57:00;;;;;;;3.78;2.85;;;18.70;1.00;;;;;;5055656;28;20480;-64
2022/09/06 00:59:29;;;;;;;4.10;2.70;;;18.70;1.00;;;;;;5055769;28;20041;-63
2022/09/06 01:01:55;;;;;;;4.00;2.63;;;18.60;1.00;;;;;;5055356;28;20051;-63
2022/09/06 01:04:22;;;;;;;4.00;2.50;;;18.70;1.00;;;;;;5055472;28;20052;-63
2022/09/06 01:07:20;;;;;;;5.20;3.00;;;18.60;1.00;;;;;;5055295;28;20119;-63
2022/09/06 01:09:54;;;;;;;3.40;3.00;;;18.70;1.00;;;;;;5055518;28;20037;-63
2022/09/06 01:12:49;;;;;;;4.47;2.85;;;18.60;1.00;;;;;;5055222;28;20103;-63
2022/09/06 01:15:32;;;;;;;4.88;3.10;;;18.60;1.00;;;;;;5053832;28;20522;-63
2022/09/06 01:18:19;;;;;;;4.65;3.03;;;18.60;1.00;;;;;;5055327;28;20502;-63
2022/09/06 01:20:57;;;;;;;2.95;2.65;;;18.60;1.00;;;;;;5054965;28;20053;-63
2022/09/06 01:23:50;;;;;;;4.07;2.80;;;18.60;1.00;;;;;;5055248;28;20189;-63
2022/09/06 01:26:34;;;;;;;3.85;2.78;;;18.50;1.00;;;;;;5054820;28;20045;-63
2022/09/06 01:29:00;;;;;;;3.65;2.53;;;18.40;1.00;;;;;;5055125;28;20071;-63
2022/09/06 01:31:44;;;;;;;5.60;3.10;;;18.40;1.00;;;;;;5055078;28;20037;-63
2022/09/06 01:34:22;;;;;;;4.85;2.78;;;18.40;1.00;;;;;;5054644;28;20057;-63
2022/09/06 01:37:10;;;;;;;5.45;3.35;;;18.30;1.00;;;;;;5054651;28;20047;-63
2022/09/06 01:39:38;;;;;;;5.88;3.08;;;18.20;1.00;;;;;;5054680;28;20434;-63
2022/09/06 01:42:18;;;;;;;6.35;2.83;;;18.20;1.00;;;;;;5054508;28;20042;-64
2022/09/06 01:44:49;;;;;;;5.95;3.00;;;18.20;1.00;;;;;;5054463;28;20052;-64
2022/09/06 01:47:42;;;;;;;3.80;2.70;;;18.10;1.00;;;;;;5055109;28;20423;-63
2022/09/06 01:50:34;;;;;;;5.13;3.03;;;18.10;1.00;;;;;;5054695;28;20059;-63
2022/09/06 01:53:09;;;;;;;4.20;3.13;;;18.10;1.00;;;;;;5054742;28;20485;-63
2022/09/06 01:55:49;;;;;;;4.07;2.80;;;18.00;1.00;;;;;;5054577;28;20122;-63
2022/09/06 01:58:34;;;;;;;;;;;18.00;1.00;;;;;;5054940;28;20064;-63
2022/09/06 02:01:01;;;;;;;5.35;2.63;;;18.00;1.00;;;;;;5054167;28;19916;-63
2022/09/06 02:03:35;;;;;;;4.20;3.30;;;18.10;1.00;;;;;;5054512;28;20048;-63
2022/09/06 02:06:11;;;;;;;5.50;3.55;;;18.10;1.00;;;;;;5054321;28;20146;-64
2022/09/06 02:08:45;;;;;;;5.75;2.92;;;18.00;1.00;;;;;;5054079;28;20041;-63
2022/09/06 02:11:13;;;;;;;4.38;3.35;;;18.00;1.00;;;;;;5054176;28;20039;-63
2022/09/06 02:13:57;;;;;;;4.43;2.80;;;18.00;1.00;;;;;;5054227;28;20033;-63
2022/09/06 02:16:27;;;;;;;4.38;3.05;;;18.00;1.00;;;;;;5036075;28;20123;-63
2022/09/06 02:19:11;;;;;;;4.45;3.22;;;18.00;1.00;;;;;;5054233;28;20044;-63
2022/09/06 02:21:41;;;;;;;5.55;3.13;;;18.00;1.00;;;;;;5053791;28;20037;-63
2022/09/06 02:24:10;;;;;;;3.42;2.58;;;18.00;1.00;;;;;;5053965;28;20045;-63
2022/09/06 02:26:42;;;;;;;4.47;2.75;;;17.90;1.00;;;;;;5054039;28;20044;-63
2022/09/06 02:29:08;;;;;;;4.95;3.30;;;17.90;1.00;;;;;;5053901;28;20067;-63
2022/09/06 02:31:36;;;;;;;5.28;3.20;;;17.90;1.00;;;;;;5053953;28;20261;-63
2022/09/06 02:34:03;;;;;;;3.95;3.15;;;17.90;1.00;;;;;;5042286;28;20118;-64
2022/09/06 02:36:30;;;;;;;4.03;3.22;;;17.90;1.00;;;;;;5053704;28;20036;-63
2022/09/06 02:38:58;;;;;;;3.85;3.15;;;17.90;1.00;;;;;;5053801;28;20045;-63
2022/09/06 02:41:25;;;;;;;6.65;3.20;;;17.90;1.00;;;;;;5053754;28;20059;-63
2022/09/06 02:43:51;;;;;;;4.32;3.25;;;17.90;1.00;;;;;;5053719;28;20448;-63
2022/09/06 02:46:16;;;;;;;3.72;3.20;;;17.90;1.00;;;;;;5053254;28;20131;-63
2022/09/06 02:48:42;;;;;;;4.30;3.00;;;17.90;1.00;;;;;;5052334;28;20392;-64
2022/09/06 02:51:08;;;;;;;3.50;3.13;;;17.90;1.00;;;;;;5053584;28;20124;-63
2022/09/06 02:53:34;;;;;;;4.15;3.10;;;17.80;1.00;;;;;;5053292;28;20037;-63
2022/09/06 02:56:00;;;;;;;3.58;3.10;;;17.80;1.00;;;;;;5052521;28;20044;-63
2022/09/06 02:58:26;;;;;;;4.90;3.35;;;17.80;1.00;;;;;;5053471;28;20037;-63
2022/09/06 03:00:52;;;;;;;4.22;2.95;;;17.80;1.00;;;;;;5051905;28;20396;-63
2022/09/06 03:03:19;;;;;;;6.43;3.30;;;17.80;1.00;;;;;;5053306;28;20037;-63
2022/09/06 03:05:48;;;;;;;5.57;3.38;;;17.80;1.00;;;;;;5051080;28;20118;-63
2022/09/06 03:08:17;;;;;;;4.97;3.25;;;17.70;1.00;;;;;;5052979;28;20132;-63
2022/09/06 03:10:50;;;;;;;5.20;3.13;;;17.70;1.00;;;;;;5053370;28;20044;-62
2022/09/06 03:13:16;;;;;;;5.13;3.22;;;17.80;1.00;;;;;;5053247;28;20075;-63
2022/09/06 03:15:42;;;;;;;3.33;2.92;;;17.70;1.00;;;;;;5052887;28;20037;-63
2022/09/06 03:18:08;;;;;;;3.85;3.13;;;17.80;1.00;;;;;;5052920;28;20037;-64
2022/09/06 03:20:34;;;;;;;3.60;3.05;;;17.70;1.00;;;;;;5053097;28;20154;-64
2022/09/06 03:22:59;;;;;;;3.83;3.20;;;17.70;1.00;;;;;;5053164;28;20048;-63
2022/09/06 03:25:25;;;;;;;4.78;3.15;;;17.70;1.00;;;;;;5053059;28;20045;-64
2022/09/06 03:27:51;;;;;;;4.82;3.20;;;17.70;1.00;;;;;;5051902;28;20069;-63
2022/09/06 03:30:17;;;;;;;5.03;3.55;;;17.70;1.00;;;;;;5051386;28;20404;-63
2022/09/06 03:32:43;;;;;;;4.53;3.30;;;17.70;1.00;;;;;;5051346;28;20041;-64
2022/09/06 03:35:10;;;;;;;5.80;3.38;;;17.70;1.00;;;;;;5052417;28;20049;-63
2022/09/06 03:37:36;;;;;;;4.05;3.47;;;17.70;1.00;;;;;;5052949;28;20071;-63
2022/09/06 03:40:03;;;;;;;3.85;3.15;;;17.70;1.00;;;;;;5052609;28;20123;-63
2022/09/06 03:42:29;;;;;;;3.80;2.97;;;17.60;1.00;;;;;;5052495;28;20039;-63
2022/09/06 03:44:55;;;;;;;4.05;2.90;;;17.60;1.00;;;;;;5052767;28;20045;-63
2022/09/06 03:47:21;;;;;;;5.13;3.40;;;17.60;1.00;;;;;;5052831;28;20029;-63
2022/09/06 03:49:46;;;;;;;4.38;3.47;;;17.60;1.00;;;;;;5052479;28;20041;-63
2022/09/06 03:52:13;;;;;;;5.97;3.15;;;17.60;1.00;;;;;;5052776;28;20090;-63
2022/09/06 03:54:39;;;;;;;4.60;3.17;;;17.60;1.00;;;;;;5052467;28;20071;-63
2022/09/06 03:57:05;;;;;;;3.85;2.92;;;17.60;1.00;;;;;;5034465;28;20045;-63
2022/09/06 03:59:32;;;;;;;4.57;3.30;;;17.60;1.00;;;;;;5052728;28;20037;-63
2022/09/06 04:01:57;;;;;;;5.35;3.42;;;17.60;1.00;;;;;;5052573;28;20090;-63
2022/09/06 04:04:23;;;;;;;4.90;3.60;;;17.60;1.00;;;;;;5052501;28;20116;-66
2022/09/06 04:06:49;;;;;;;7.45;3.38;;;17.60;1.00;;;;;;5055300;28;20108;-63
2022/09/06 04:09:14;;;;;;;5.13;3.28;;;17.60;1.00;;;;;;5056583;28;20060;-63
2022/09/06 04:11:41;;;;;;;8.38;3.53;;;17.60;1.00;;;;;;5056609;28;20060;-64
2022/09/06 04:14:07;;;;;;;5.88;3.40;;;17.50;1.00;;;;;;5056461;28;20036;-64
2022/09/06 04:16:32;;;;;;;5.00;3.28;;;17.50;1.00;;;;;;5056565;28;20051;-63
2022/09/06 04:18:59;;;;;;;5.35;3.63;;;17.50;1.00;;;;;;5038601;28;20047;-65
2022/09/06 04:21:26;;;;;;;5.35;3.67;;;17.50;1.00;;;;;;5038292;28;20048;-63
2022/09/06 04:23:51;;;;;;;4.72;3.13;;;17.50;1.00;;;;;;5056319;28;20045;-63
2022/09/06 04:26:17;;;;;;;5.80;3.50;;;17.60;1.00;;;;;;5056266;28;20047;-63
2022/09/06 04:28:43;;;;;;;4.22;3.35;;;17.60;1.00;;;;;;5056082;28;20045;-63
2022/09/06 04:31:08;;;;;;;4.80;3.42;;;17.60;1.00;;;;;;5038227;28;20040;-63
2022/09/06 04:33:37;;;;;;;5.28;3.80;;;17.60;1.00;;;;;;5055837;28;20072;-63
2022/09/06 04:36:05;;;;;;;5.03;4.18;;;17.60;1.00;;;;;;5055820;28;20048;-64
2022/09/06 04:38:35;;;;;;;8.15;3.33;;;17.60;1.00;;;;;;5038251;28;20120;-63
2022/09/06 04:41:01;;;;;;;4.90;3.05;;;17.60;1.00;;;;;;5056080;28;20076;-63
2022/09/06 04:43:27;;;;;;;6.70;3.72;;;17.60;1.00;;;;;;5055647;28;20040;-62
2022/09/06 04:45:53;;;;;;;7.35;4.65;;;17.60;1.00;;;;;;5055952;28;20127;-62
2022/09/06 04:48:19;;;;;;;5.10;3.65;;;17.60;1.00;;;;;;5037653;28;20052;-63
2022/09/06 04:50:44;;;;;;;4.18;3.40;;;17.60;1.00;;;;;;5055710;28;20044;-63
2022/09/06 04:53:10;;;;;;;4.85;4.10;;;17.60;1.00;;;;;;5055786;28;20041;-63
2022/09/06 04:55:36;;;;;;;7.78;4.18;;;17.60;1.00;;;;;;5055413;28;20049;-62
2022/09/06 04:58:04;;;;;;;5.00;3.65;;;17.60;1.00;;;;;;5055681;28;20045;-63
2022/09/06 05:00:33;;;;;;;5.60;3.58;;;17.60;1.00;;;;;;5055707;28;20079;-63
2022/09/06 05:02:59;;;;;;;6.18;4.15;;;17.60;1.00;;;;;;5055602;28;20048;-63
2022/09/06 05:05:25;;;;;;;5.57;3.83;;;17.60;1.00;;;;;;5055105;28;20385;-63
2022/09/06 05:07:55;;;;;;;5.75;4.30;;;17.60;1.00;;;;;;5055392;28;20112;-63
2022/09/06 05:10:22;;;;;;;3.72;3.30;;;17.60;1.00;;;;;;5037209;28;20033;-63
2022/09/06 05:12:52;;;;;;;3.78;3.28;;;17.60;1.00;;;;;;5055401;28;20115;-62
2022/09/06 05:15:20;;;;;;;4.60;3.72;;;17.60;1.00;;;;;;5055132;28;20040;-63
2022/09/06 05:17:46;;;;;;;5.18;3.75;;;17.60;1.00;;;;;;5036096;28;20124;-62
2022/09/06 05:20:11;;;;;;;6.07;4.03;;;17.60;1.00;;;;;;5054976;28;20124;-62
2022/09/06 05:22:38;;;;;;;4.90;3.60;;;17.50;1.00;;;;;;5055288;28;20041;-63
2022/09/06 05:25:04;;;;;;;4.35;3.60;;;17.50;8.50;;;;;;5055082;28;20476;-63
2022/09/06 05:27:30;;;;;;;7.63;4.00;;;17.40;36.70;;;;;;5055233;28;20033;-62
2022/09/06 05:29:56;;;;;;;6.30;4.05;;;17.40;91.00;;;;;;5055110;28;20044;-63
2022/09/06 05:32:21;;;;;;;5.65;4.25;;;17.40;99.90;;;;;;5055088;28;20327;-63
2022/09/06 05:34:47;;;;;;;5.97;3.97;;;17.30;99.90;;;;;;5054335;28;20083;-63
2022/09/06 05:37:13;;;;;;;5.43;4.07;;;17.30;99.90;;;;;;5054690;28;20128;-63
2022/09/06 05:39:39;;;;;;;7.10;4.82;;;17.30;99.90;;;;;;5054942;28;20051;-63
2022/09/06 05:42:05;;;;;;;7.95;4.47;;;17.30;99.90;;;;;;5054909;28;20045;-64
2022/09/06 05:44:33;;;;;;;7.65;4.57;;;17.30;99.90;;;;;;5036508;28;20055;-62
2022/09/06 05:47:00;;;;;;;5.57;4.35;;;17.30;99.90;;;;;;5020414;28;20037;-64
2022/09/06 05:49:28;;;;;;;6.97;4.75;;;17.30;99.90;;;;;;5054547;28;20048;-62
2022/09/06 05:51:53;;;;;;;10.45;5.43;;;17.30;99.90;;;;;;5054620;28;20132;-62
2022/09/06 05:54:19;;;;;;;6.80;4.75;;;17.30;99.90;;;;;;5036577;28;20073;-63
2022/09/06 05:56:45;;;;;;;7.63;4.13;;;17.40;67.60;;;;;;5054542;28;20423;-64
2022/09/06 05:59:11;;;;;;;6.25;4.50;;;17.40;1.00;;;;;;5054633;28;20041;-63
2022/09/06 06:01:45;;;;;;;5.68;4.65;;;17.50;1.00;;;;;;5054540;28;20041;-63
2022/09/06 06:04:10;;;;;;;8.13;4.88;;;17.50;1.00;;;;;;5054372;28;20033;-63
2022/09/06 06:06:36;;;;;;;6.07;4.75;;;17.50;84.40;;;;;;5054117;28;20037;-64
2022/09/06 06:09:02;;;;;;;7.88;4.72;;;17.50;99.90;;;;;;5053925;28;20458;-63
2022/09/06 06:11:29;;;;;;;6.45;4.70;;;17.40;99.90;;;;;;5036249;28;20400;-64
2022/09/06 06:13:55;;;;;;;6.32;5.03;;;17.50;1.00;;;;;;5054169;28;20091;-65
2022/09/06 06:16:22;;;;;;;7.75;5.28;;;15.80;64.40;;;;;;5054027;28;20068;-63
2022/09/06 06:18:48;;;;;;;7.70;5.20;;;17.60;1.00;;;;;;5035831;28;20120;-63
2022/09/06 06:21:20;;;;;;;8.15;5.45;;;17.60;99.90;;;;;;5053474;28;20463;-63
2022/09/06 06:23:52;;;;;;;7.10;5.05;;;17.60;1.00;;;;;;5053880;28;20036;-64
2022/09/06 06:26:18;;;;;;;6.35;4.85;;;17.60;99.90;;;;;;5053515;28;20040;-64
2022/09/06 06:28:44;;;;;;;6.47;4.35;;;17.70;99.90;;;;;;5035576;28;20052;-64
2022/09/06 06:31:11;;;;;;;5.32;4.70;;;17.70;99.90;;;;;;5035548;28;20037;-64
2022/09/06 06:33:37;;;;;;;11.45;5.30;;;17.70;99.90;;;;;;5038598;28;20134;-64
2022/09/06 06:36:05;;;;;;;7.32;4.55;;;17.70;1.00;;;;;;5053289;28;20049;-64
2022/09/06 06:38:33;;;;;;;8.00;5.60;;;17.70;1.00;;;;;;5053853;28;20045;-64
2022/09/06 06:41:00;;;;;;;9.43;5.18;;;17.70;99.90;;;;;;5053827;28;20488;-65
2022/09/06 06:43:26;;;;;;;6.82;5.28;;;17.80;99.90;;;;;;5053392;28;20144;-64
2022/09/06 06:45:52;;;;;;;7.43;4.93;;;17.80;13.30;;;;;;5053262;28;20044;-64
2022/09/06 06:48:19;;;;;;;7.25;5.22;;;17.80;99.90;;;;;;5053658;28;20501;-65
2022/09/06 06:50:44;;;;;;;6.85;5.68;;;17.90;99.90;;;;;;5053639;28;20127;-64
2022/09/06 06:53:10;;;;;;;6.55;5.25;;;17.90;99.90;;;;;;5053466;28;20140;-64
2022/09/06 06:55:36;;;;;;;6.65;5.20;;;17.90;99.90;;;;;;5035389;28;20045;-64
2022/09/06 06:58:02;;;;;;;7.55;5.15;;;17.90;99.90;;;;;;5053207;28;20032;-64
2022/09/06 07:00:28;;;;;;;9.40;5.30;;;18.00;1.00;;;;;;5053173;28;20037;-65
2022/09/06 07:02:55;;;;;;;5.72;5.13;;;18.10;1.00;;;;;;5035448;28;20037;-65
2022/09/06 07:05:25;;;;;;;6.95;5.18;;;18.20;99.90;;;;;;5045421;28;20070;-65
2022/09/06 07:07:50;;;;;;;7.80;5.53;;;18.30;1.00;;;;;;5053323;28;20037;-64
2022/09/06 07:10:16;;;;;;;6.22;5.25;;;18.50;1.00;;;;;;5051681;28;20373;-64
2022/09/06 07:12:42;;;;;;;8.30;6.18;;;18.70;99.90;;;;;;5051615;28;20128;-64
2022/09/06 07:15:08;;;;;;;9.07;6.40;;;18.70;1.00;;;;;;5053166;28;20048;-64
2022/09/06 07:17:34;;;;;;;7.95;5.75;;;18.80;97.30;;;;;;5052885;28;20087;-65
2022/09/06 07:20:00;;;;;;;6.70;4.93;;;18.80;99.90;;;;;;5035317;28;20098;-64
2022/09/06 07:22:25;;;;;;;6.28;5.57;;;18.80;1.00;;;;;;5053186;28;20037;-64
2022/09/06 07:24:51;;;;;;;9.05;5.70;;;18.90;1.00;;;;;;5053147;28;20239;-64
2022/09/06 07:27:17;;;;;;;8.15;5.32;;;18.90;9.70;;;;;;5053104;28;20392;-65
2022/09/06 07:29:42;;;;;;;10.10;6.65;;;18.90;88.50;;;;;;5051925;28;20045;-64
2022/09/06 07:32:08;;;;;;;10.32;6.95;;;19.00;99.90;;;;;;5052871;28;20072;-65
2022/09/06 07:34:36;;;;;;;9.00;6.32;;;19.00;99.90;;;;;;5052569;28;20061;-65
2022/09/06 07:37:02;;;;;;;10.43;6.63;;;19.00;99.90;;;;;;5052917;28;20048;-63
2022/09/06 07:39:28;;;;;;;8.68;5.93;;;19.00;99.90;;;;;;5034960;28;20477;-64
2022/09/06 07:41:54;;;;;;;9.52;6.05;;;19.00;99.90;;;;;;5052461;28;20039;-65
2022/09/06 07:44:20;;;;;;;7.25;5.25;;;19.00;50.00;;;;;;5018263;28;20049;-65
2022/09/06 07:46:45;;;;;;;7.47;6.00;;;19.10;29.10;;;;;;5052530;28;20041;-67
2022/09/06 07:49:11;;;;;;;9.52;6.65;;;19.10;1.00;;;;;;5052607;28;20044;-64
2022/09/06 07:51:37;;;;;;;10.15;6.30;;;19.10;1.00;;;;;;5052844;28;20084;-64
2022/09/06 07:54:03;;;;;;;7.50;6.50;;;19.40;99.90;;;;;;5052819;28;20049;-65
2022/09/06 07:56:29;;;;;;;7.68;6.60;;;19.60;99.90;;;;;;5034557;28;20080;-65
2022/09/06 07:58:56;;;;;;;9.40;5.95;;;20.10;1.00;;;;;;5034589;28;20073;-64
2022/09/06 08:01:28;;;;;;;10.63;7.10;;;20.10;99.90;;;;;;5052734;28;20108;-65
2022/09/06 08:03:58;;;;;;;8.73;6.07;;;20.30;99.90;;;;;;5052544;28;20056;-64
2022/09/06 08:06:26;;;;;;;9.50;6.68;;;20.50;99.90;;;;;;5052332;28;20049;-65
2022/09/06 08:08:53;;;;;;;9.10;6.30;;;20.60;1.00;;;;;;5052697;28;20535;-65
2022/09/06 08:11:19;;;;;;;8.35;6.18;;;20.80;99.90;;;;;;5034378;28;20051;-65
2022/09/06 08:13:49;;;;;;;8.93;6.03;;;21.00;99.90;;;;;;5034805;28;20049;-66
2022/09/06 08:16:15;;;;;;;9.82;6.38;;;21.10;99.90;;;;;;5034379;28;20044;-65
2022/09/06 08:18:41;;;;;;;8.88;6.50;;;21.20;99.90;;;;;;5034334;28;20084;-65
2022/09/06 08:21:09;;;;;;;7.72;6.03;;;21.30;99.90;;;;;;5052190;28;20033;-65
2022/09/06 08:23:36;;;;;;;8.00;6.00;;;21.40;76.40;;;;;;5034547;28;20498;-65
2022/09/06 08:26:01;;;;;;;8.38;6.05;;;21.60;99.90;;;;;;5052408;28;20080;-65
2022/09/06 08:28:27;;;;;;;7.40;5.68;;;21.70;62.50;;;;;;5034251;28;20083;-64
2022/09/06 08:30:53;;;;;;;8.30;6.05;;;21.70;36.40;;;;;;5052183;28;20041;-65
2022/09/06 08:33:24;;;;;;;8.20;5.47;;;21.80;41.60;;;;;;5035224;28;20061;-65
2022/09/06 08:35:59;;;;;;;7.25;5.68;;;21.90;21.30;;;;;;5052156;28;20132;-65
2022/09/06 08:38:26;;;;;;;8.30;6.10;;;22.00;21.20;;;;;;5050527;28;20110;-67
2022/09/06 08:40:53;;;;;;;9.50;6.05;;;22.00;1.00;;;;;;5052359;28;20080;-65
2022/09/06 08:43:20;;;;;;;8.73;6.22;;;22.20;1.00;;;;;;5052269;28;20083;-64
2022/09/06 08:45:55;;;;;;;6.63;5.55;;;22.30;1.00;;;;;;5052121;28;20124;-65
2022/09/06 08:48:27;;;;;;;12.00;5.85;;;22.30;1.00;;;;;;5052260;28;20041;-65
2022/09/06 08:51:10;;;;;;;6.35;5.22;;;22.40;1.00;;;;;;5050706;28;20112;-64
2022/09/06 08:53:43;;;;;;;9.82;5.45;;;22.60;1.00;;;;;;5052720;28;20144;-64
2022/09/06 08:56:26;;;;;;;7.88;5.40;;;22.60;1.00;;;;;;5055589;28;20055;-65
2022/09/06 08:59:10;;;;;;;6.43;5.20;;;22.70;1.00;;;;;;5055339;28;20036;-65
2022/09/06 09:01:40;;;;;;;5.82;4.97;;;22.70;1.00;;;;;;5055672;28;20496;-64
2022/09/06 09:04:12;;;;;;;7.28;5.35;;;22.70;1.00;;;;;;5053641;28;20083;-65
2022/09/06 09:06:38;;;;;;;7.18;5.28;;;22.80;1.00;;;;;;5055562;28;20040;-65
2022/09/06 09:09:06;;;;;;;9.73;4.47;;;22.80;1.00;;;;;;5055516;28;20114;-66
2022/09/06 09:11:34;;;;;;;6.65;4.97;;;23.00;1.00;;;;;;5055555;28;20124;-64
2022/09/06 09:14:09;;;;;;;6.85;5.00;;;23.20;1.00;;;;;;5054104;28;20120;-65
2022/09/06 09:16:35;;;;;;;5.68;5.07;;;23.30;1.00;;;;;;5055460;28;20045;-65
2022/09/06 09:19:04;;;;;;;4.85;4.18;;;23.30;1.00;;;;;;5053727;28;20044;-64
2022/09/06 09:21:32;;;;;;;6.97;4.40;;;23.30;1.00;;;;;;5055323;28;20045;-65
2022/09/06 09:24:06;;;;;;;6.20;4.57;;;23.30;1.00;;;;;;5055216;28;20087;-64
2022/09/06 09:26:42;;;;;;;5.45;4.55;;;23.30;1.00;;;;;;5055127;28;20110;-65
2022/09/06 09:29:11;;;;;;;5.97;4.10;;;23.30;1.00;;;;;;5054985;28;20485;-65
2022/09/06 09:31:45;;;;;;;5.18;4.10;;;23.30;1.00;;;;;;5055125;28;20075;-66
2022/09/06 09:34:13;;;;;;;5.63;4.18;;;23.30;1.00;;;;;;5056375;28;20056;-66
2022/09/06 09:36:39;;;;;;;9.35;4.53;;;23.30;1.00;;;;;;5057135;28;20396;-65
2022/09/06 09:39:11;;;;;;;5.82;4.20;;;23.40;1.00;;;;;;5075017;28;20039;-65
2022/09/06 09:41:41;;;;;;;6.57;4.53;;;23.50;1.00;;;;;;5056716;28;20123;-65
2022/09/06 09:44:15;;;;;;;6.35;4.88;;;23.60;1.00;;;;;;5074866;28;20047;-64
2022/09/06 09:46:40;;;;;;;6.85;4.40;;;23.60;1.00;;;;;;5074447;28;20072;-65
2022/09/06 09:49:27;;;;;;;5.68;4.15;;;23.80;1.00;;;;;;5074643;28;20094;-65
2022/09/06 09:52:13;;;;;;;6.43;4.72;;;24.00;1.00;;;;;;5074802;28;20510;-65
2022/09/06 09:54:45;;;;;;;4.72;3.65;;;24.00;1.00;;;;;;5056505;28;20040;-65
2022/09/06 09:57:17;;;;;;;6.88;4.82;;;24.10;1.00;;;;;;5056404;28;20048;-65
2022/09/06 09:59:45;;;;;;;6.10;4.13;;;24.20;1.00;;;;;;5056280;28;20079;-65
2022/09/06 10:02:22;;;;;;;6.32;3.65;;;24.30;1.00;;;;;;5074541;28;20036;-65
2022/09/06 10:04:51;;;;;;;5.30;4.50;;;24.40;1.00;;;;;;5073732;28;20368;-65
2022/09/06 10:07:22;;;;;;;6.55;4.07;;;24.50;1.00;;;;;;5074077;28;20063;-65
2022/09/06 10:09:57;;;;;;;4.03;3.38;;;24.70;1.00;;;;;;5039810;28;20037;-64
2022/09/06 10:12:30;;;;;;;6.90;4.32;;;24.70;1.00;;;;;;5056442;28;20368;-66
2022/09/06 10:14:56;;;;;;;6.35;4.50;;;24.90;1.00;;;;;;5074016;28;20048;-64
2022/09/06 10:17:48;;;;;;;6.53;3.90;;;24.90;1.00;;;;;;5074146;28;20085;-64
2022/09/06 10:20:15;;;;;;;6.07;3.85;;;25.10;1.00;;;;;;5074066;28;20083;-64
2022/09/06 10:22:49;;;;;;;6.30;3.92;;;25.10;1.00;;;;;;5056292;28;20380;-65
2022/09/06 10:25:20;;;;;;;5.72;4.45;;;25.10;1.00;;;;;;5055773;28;20098;-65
2022/09/06 10:28:20;;;;;;;4.15;3.70;;;25.00;1.00;;;;;;5073665;28;20040;-65
2022/09/06 10:31:06;;;;;;;6.80;4.32;;;25.00;1.00;;;;;;5074009;28;20113;-67
2022/09/06 10:33:52;;;;;;;6.28;4.18;;;25.00;1.00;;;;;;5055471;28;20056;-65
2022/09/06 10:36:27;;;;;;;5.47;3.47;;;24.90;1.00;;;;;;5038455;28;20101;-65
2022/09/06 10:38:53;;;;;;;3.75;3.33;;;25.00;1.00;;;;;;5073552;28;20044;-66
2022/09/06 10:41:43;;;;;;;6.85;3.55;;;24.90;1.00;;;;;;5073407;28;20037;-66
2022/09/06 10:44:28;;;;;;;5.28;3.65;;;25.00;1.00;;;;;;5055544;28;20036;-65
2022/09/06 10:47:10;;;;;;;6.38;3.58;;;25.00;1.00;;;;;;5073638;28;20138;-65
2022/09/06 10:49:37;;;;;;;4.57;3.53;;;25.10;1.00;;;;;;5073489;28;20036;-66
2022/09/06 10:52:08;;;;;;;5.43;3.35;;;25.10;1.00;;;;;;5073407;28;20044;-65
2022/09/06 10:54:39;;;;;;;4.03;3.22;;;25.10;1.00;;;;;;5073389;28;20119;-65
2022/09/06 10:57:15;;;;;;;6.85;4.00;;;25.10;1.00;;;;;;5038603;28;20040;-65
2022/09/06 10:59:40;;;;;;;4.88;2.95;;;25.10;1.00;;;;;;5055478;28;20044;-65
2022/09/06 11:02:21;;;;;;;6.18;3.33;;;25.20;1.00;;;;;;5073211;28;20044;-65
2022/09/06 11:04:49;;;;;;;4.70;2.92;;;25.20;1.00;;;;;;5072903;28;20076;-64
2022/09/06 11:07:30;;;;;;;4.80;3.42;;;25.30;1.00;;;;;;5073281;28;20053;-65
2022/09/06 11:10:02;;;;;;;4.93;3.28;;;25.30;1.00;;;;;;5072840;28;20040;-66
2022/09/06 11:12:47;;;;;;;5.53;3.40;;;25.30;1.00;;;;;;5054917;28;20051;-65
2022/09/06 11:15:14;;;;;;;5.65;3.78;;;25.20;1.00;;;;;;5072467;28;20479;-65
2022/09/06 11:18:10;;;;;;;5.05;3.53;;;25.30;1.00;;;;;;5054924;28;20044;-65
2022/09/06 11:20:50;;;;;;;6.82;3.30;;;25.30;1.00;;;;;;5038413;28;20045;-65
2022/09/06 11:23:37;;;;;;;5.63;3.80;;;25.40;1.00;;;;;;5073146;28;20487;-70
2022/09/06 11:26:17;;;;;;;5.03;3.00;;;;;;;;;;5073049;28;20048;-65
2022/09/06 11:28:54;;;;;;;6.25;3.50;;;;;;;;;;5055245;28;20033;-64
2022/09/06 11:31:28;;;;;;;5.30;3.08;;;;;;;;;;5072985;28;20068;-65
2022/09/06 11:34:02;;;;;;;7.80;3.58;;;;;;;;;;5054712;28;20052;-65
2022/09/06 11:36:28;;;;;;;4.43;2.92;;;;;;;;;;5072943;28;20102;-64
2022/09/06 11:38:56;;;;;;;4.95;3.60;;;;;;;;;;5072972;28;20048;-63
2022/09/06 11:41:27;;;;;;;5.22;3.22;;;;;;;;;;5072982;28;20131;-65
2022/09/06 11:43:53;;;;;;;4.90;3.10;;;;;;;;;;5073052;28;20040;-64
2022/09/06 11:46:42;;;;;;;5.50;3.65;;;;;;;;;;5054739;28;20044;-63
2022/09/06 11:49:26;;;;;;;5.75;3.63;;;;;;;;;;5041916;28;20052;-64
2022/09/06 11:51:52;;;;;;;4.15;3.00;;;;;;;;;;5072864;28;20039;-65
2022/09/06 11:54:20;;;;;;;3.67;2.65;;;;;;;;;;5072786;28;20444;-65
2022/09/06 11:56:46;;;;;;;4.97;3.00;;;;;;;;;;5072811;28;20047;-66
2022/09/06 11:59:17;;;;;;;4.18;3.00;;;;;;;;;;5072431;28;20036;-65
2022/09/06 12:01:55;;;;;;;2.53;2.20;;;;;;;;;;5072446;28;20119;-65
2022/09/06 12:04:22;;;;;;;2.58;2.10;;;;;;;;;;5072366;28;20123;-65
2022/09/06 12:07:07;;;;;;;3.88;2.78;;;;;;;;;;5072549;28;20040;-65
2022/09/06 12:09:35;;;;;;;3.92;2.95;;;;;;;;;;5072445;28;20171;-66
2022/09/06 12:12:01;;;;;;;5.03;2.97;;;;;;;;;;5072383;28;20040;-66
2022/09/06 12:14:47;;;;;;;3.58;2.60;;;;;;;;;;5072488;28;20170;-65
2022/09/06 12:17:14;;;;;;;3.92;2.65;;;;;;;;;;5072566;28;20044;-65
2022/09/06 12:19:49;;;;;;;4.05;2.53;;;;;;;;;;5072577;28;20033;-65
2022/09/06 12:22:31;;;;;;;2.70;2.30;;;;;;;;;;5054556;28;20052;-66
2022/09/06 12:25:00;;;;;;;4.38;2.10;;;;;;;;;;5072155;28;20056;-66
2022/09/06 12:27:31;;;;;;;3.28;2.28;;;;;;;;;;5074378;28;20036;-66
2022/09/06 12:30:03;;;;;;;4.40;2.38;;;;;;;;;;5076168;28;20471;-66
2022/09/06 12:32:46;;;;;;;3.33;2.10;;;;;;;;;;5057958;28;20044;-65
2022/09/06 12:35:19;;;;;;;4.55;2.10;;;;;;;;;;5057797;28;20491;-66
2022/09/06 12:38:05;;;;;;;6.00;2.78;;;;;;;;;;5075955;28;20403;-66
2022/09/06 12:40:37;;;;;;;2.65;1.55;;;;;;;;;;5057934;28;20055;-65
2022/09/06 12:43:04;;;;;;;2.92;1.83;;;26.70;1.00;;;;;;5075489;28;20044;-65
2022/09/06 12:45:30;;;;;;;2.88;2.03;;;26.60;1.00;;;;;;5075757;28;20400;-65
2022/09/06 12:48:26;;;;;;;2.22;1.65;;;26.60;1.00;;;;;;5058109;28;20036;-65
2022/09/06 12:51:18;;;;;;;3.13;2.25;;;26.50;1.00;;;;;;5064766;28;20048;-66
2022/09/06 12:53:51;;;;;;;2.92;2.15;;;26.40;1.00;;;;;;5057510;28;20040;-65
2022/09/06 12:56:20;;;;;;;3.22;1.90;;;26.50;1.00;;;;;;5057590;28;20048;-64
2022/09/06 12:58:46;;;;;;;2.20;1.70;;;26.50;1.00;;;;;;5075792;28;20037;-64
2022/09/06 13:01:24;;;;;;;2.78;1.95;;;26.50;1.00;;;;;;5040504;28;20071;-66
2022/09/06 13:04:01;;;;;;;3.95;1.80;;;26.60;1.00;;;;;;5057385;28;20056;-66
2022/09/06 13:06:29;;;;;;;2.40;1.60;;;26.60;1.00;;;;;;5057285;28;20109;-65
2022/09/06 13:08:56;;;;;;;3.35;1.90;;;26.60;1.00;;;;;;5040625;28;20048;-64
2022/09/06 13:11:29;;;;;;;2.38;1.63;;;26.60;1.00;;;;;;5057065;28;20045;-64
2022/09/06 13:13:55;;;;;;;2.38;1.80;;;26.40;1.00;;;;;;5075050;28;20044;-67
2022/09/06 13:16:25;;;;;;;2.50;1.60;;;26.30;1.00;;;;;;5057316;28;20052;-66
2022/09/06 13:18:51;;;;;;;2.63;1.60;;;26.20;1.00;;;;;;5075042;28;20051;-66
2022/09/06 13:21:31;;;;;;;2.33;1.50;;;26.10;1.00;;;;;;5057240;28;20391;-66